Time;durP1;ratioP1;P1;durP2;ratioP2;P2;SDS_P1;SDS_P2;PMS_P1;PMS_P2;Temp;Humidity;BMP_temperature;BMP_pressure;BME280_temperature;BME280_humidity;BME280_pressure;Samples;Min_cycle;Max_cycle;Signal;HPM_P1;HPM_P2
2022/05/15 00:02:44;;;;;;;21.23;17.45;;;17.10;99.90;;;;;;5045176;28;20043;-59
2022/05/15 00:05:10;;;;;;;27.80;19.67;;;17.00;99.90;;;;;;5036237;28;20033;-59
2022/05/15 00:07:36;;;;;;;19.25;16.10;;;16.90;99.90;;;;;;5034631;28;20116;-58
2022/05/15 00:10:06;;;;;;;22.55;20.00;;;17.00;99.90;;;;;;5033392;28;20109;-58
2022/05/15 00:12:32;;;;;;;24.83;18.30;;;17.00;99.90;;;;;;5034284;28;20013;-59
2022/05/15 00:14:58;;;;;;;24.13;18.48;;;17.10;99.90;;;;;;5030502;28;20037;-60
2022/05/15 00:17:24;;;;;;;22.40;19.17;;;17.00;99.90;;;;;;5036660;28;20018;-59
2022/05/15 00:19:49;;;;;;;20.27;17.58;;;16.90;99.90;;;;;;5034698;28;20036;-60
2022/05/15 00:22:15;;;;;;;24.52;19.02;;;16.90;99.90;;;;;;5034761;28;20032;-60
2022/05/15 00:24:41;;;;;;;23.65;17.98;;;17.00;99.90;;;;;;5034353;28;20036;-60
2022/05/15 00:27:07;;;;;;;21.60;17.55;;;17.10;99.90;;;;;;5030296;28;20113;-59
2022/05/15 00:29:33;;;;;;;25.95;19.80;;;17.10;99.90;;;;;;5036009;28;20112;-60
2022/05/15 00:31:59;;;;;;;25.05;19.25;;;16.80;99.90;;;;;;5033148;28;20029;-59
2022/05/15 00:34:25;;;;;;;23.80;19.95;;;16.80;99.90;;;;;;5031849;28;20034;-59
2022/05/15 00:36:50;;;;;;;25.15;18.20;;;16.80;99.90;;;;;;5034153;28;20495;-59
2022/05/15 00:39:17;;;;;;;22.25;18.63;;;16.80;99.90;;;;;;5031317;28;20041;-59
2022/05/15 00:41:43;;;;;;;20.02;16.73;;;16.80;99.90;;;;;;5033435;28;20037;-59
2022/05/15 00:44:10;;;;;;;22.88;18.83;;;16.80;99.90;;;;;;5035029;28;20029;-60
2022/05/15 00:46:39;;;;;;;24.85;18.33;;;16.80;99.90;;;;;;5034187;28;20029;-60
2022/05/15 00:49:08;;;;;;;22.50;18.52;;;16.80;99.90;;;;;;5032613;28;20041;-60
2022/05/15 00:51:40;;;;;;;20.70;17.20;;;16.70;99.90;;;;;;5033924;28;20028;-60
2022/05/15 00:54:10;;;;;;;20.27;17.60;;;16.80;99.90;;;;;;5015021;28;20139;-59
2022/05/15 00:56:48;;;;;;;21.58;18.42;;;16.70;99.90;;;;;;5034696;28;20025;-59
2022/05/15 00:59:17;;;;;;;23.60;18.58;;;16.70;99.90;;;;;;5033638;28;20068;-59
2022/05/15 01:01:44;;;;;;;21.70;17.08;;;16.70;99.90;;;;;;5034257;28;20026;-60
2022/05/15 01:04:09;;;;;;;24.42;17.75;;;16.70;99.90;;;;;;5034254;28;20025;-60
2022/05/15 01:06:37;;;;;;;21.25;17.73;;;16.70;99.90;;;;;;5034039;28;20528;-58
2022/05/15 01:09:04;;;;;;;22.30;17.27;;;16.70;99.90;;;;;;5014379;28;20034;-60
2022/05/15 01:11:33;;;;;;;20.98;17.30;;;16.80;99.90;;;;;;5047255;28;20163;-59
2022/05/15 01:14:05;;;;;;;21.10;16.35;;;16.70;99.90;;;;;;5034016;28;20045;-59
2022/05/15 01:16:32;;;;;;;18.27;16.33;;;16.80;99.90;;;;;;5034133;28;20037;-60
2022/05/15 01:18:59;;;;;;;19.38;15.45;;;16.70;99.90;;;;;;5034022;28;20059;-59
2022/05/15 01:21:38;;;;;;;19.25;16.88;;;16.80;99.90;;;;;;5032401;28;20030;-60
2022/05/15 01:24:07;;;;;;;24.77;17.73;;;16.60;99.90;;;;;;5014012;28;20034;-59
2022/05/15 01:26:35;;;;;;;23.10;17.13;;;16.60;99.90;;;;;;5047129;28;20108;-60
2022/05/15 01:29:03;;;;;;;19.83;16.65;;;16.70;99.90;;;;;;5034591;28;20056;-59
2022/05/15 01:31:29;;;;;;;22.42;17.95;;;16.60;99.90;;;;;;5033620;28;20689;-59
2022/05/15 01:33:55;;;;;;;19.40;15.20;;;16.60;99.90;;;;;;5033806;28;20082;-59
2022/05/15 01:36:23;;;;;;;23.00;18.58;;;16.60;99.90;;;;;;5031934;28;20030;-59
2022/05/15 01:38:49;;;;;;;23.38;17.50;;;16.60;99.90;;;;;;5030760;28;20054;-60
2022/05/15 01:41:15;;;;;;;23.02;17.20;;;16.50;99.90;;;;;;5033713;28;20429;-59
2022/05/15 01:43:43;;;;;;;21.77;18.75;;;16.50;99.90;;;;;;5033848;28;20025;-60
2022/05/15 01:46:10;;;;;;;26.42;18.15;;;16.50;99.90;;;;;;5033780;28;20468;-59
2022/05/15 01:48:37;;;;;;;23.70;19.55;;;16.40;99.90;;;;;;5036000;28;20065;-59
2022/05/15 01:51:03;;;;;;;24.58;19.20;;;16.40;99.90;;;;;;5016377;28;20559;-59
2022/05/15 01:53:30;;;;;;;20.02;16.88;;;16.30;99.90;;;;;;5039091;28;20075;-59
2022/05/15 01:55:56;;;;;;;21.08;16.90;;;16.40;99.90;;;;;;5036858;28;20022;-59
2022/05/15 01:58:22;;;;;;;19.92;15.73;;;16.40;99.90;;;;;;5037202;28;20489;-59
2022/05/15 02:00:48;;;;;;;19.40;16.73;;;16.30;99.90;;;;;;5037140;28;20070;-59
2022/05/15 02:03:13;;;;;;;21.95;16.95;;;16.30;99.90;;;;;;5033944;28;20026;-59
2022/05/15 02:05:39;;;;;;;20.42;15.85;;;16.30;99.90;;;;;;5037235;28;20036;-59
2022/05/15 02:08:05;;;;;;;20.38;16.15;;;16.30;99.90;;;;;;5036308;28;20037;-59
2022/05/15 02:10:31;;;;;;;21.02;16.58;;;16.30;99.90;;;;;;5036718;28;20030;-59
2022/05/15 02:12:57;;;;;;;20.48;15.95;;;16.20;99.90;;;;;;5036974;28;20532;-59
2022/05/15 02:15:23;;;;;;;18.60;15.23;;;16.20;99.90;;;;;;5034993;28;20500;-59
2022/05/15 02:17:49;;;;;;;19.17;15.57;;;16.20;99.90;;;;;;5034254;28;20036;-59
2022/05/15 02:20:15;;;;;;;19.77;15.40;;;16.10;99.90;;;;;;5038782;28;20033;-59
2022/05/15 02:22:41;;;;;;;22.60;16.98;;;16.20;99.90;;;;;;5036636;28;20367;-60
2022/05/15 02:25:09;;;;;;;19.98;16.85;;;16.10;99.90;;;;;;5036693;28;20458;-59
2022/05/15 02:27:35;;;;;;;24.08;15.57;;;16.10;99.90;;;;;;5036363;28;20048;-60
2022/05/15 02:30:03;;;;;;;20.27;15.57;;;16.00;99.90;;;;;;5031615;28;20472;-59
2022/05/15 02:32:29;;;;;;;18.58;15.80;;;16.00;99.90;;;;;;5038296;28;20017;-59
2022/05/15 02:34:54;;;;;;;18.27;16.27;;;16.00;99.90;;;;;;5036569;28;20512;-59
2022/05/15 02:37:20;;;;;;;18.35;15.70;;;16.00;99.90;;;;;;5036051;28;20099;-59
2022/05/15 02:39:47;;;;;;;19.40;16.23;;;15.90;99.90;;;;;;5034815;28;20045;-59
2022/05/15 02:42:13;;;;;;;17.58;14.38;;;15.90;99.90;;;;;;5033496;28;20406;-60
2022/05/15 02:44:39;;;;;;;21.60;15.35;;;15.90;99.90;;;;;;5036449;28;20033;-59
2022/05/15 02:47:05;;;;;;;21.77;14.40;;;15.90;99.90;;;;;;5035718;28;20398;-59
2022/05/15 02:52:15;;;;;;;;;;;15.90;99.90;;;;;;5036847;28;20064;-60
2022/05/15 02:54:41;;;;;;;18.10;14.77;;;15.90;99.90;;;;;;5036238;28;20369;-59
2022/05/15 02:57:08;;;;;;;19.10;13.90;;;15.90;99.90;;;;;;5031990;28;20087;-59
2022/05/15 02:59:34;;;;;;;15.82;12.95;;;15.90;99.90;;;;;;5037558;28;20044;-59
2022/05/15 03:02:00;;;;;;;16.83;13.18;;;15.90;99.90;;;;;;5034718;28;20033;-59
2022/05/15 03:04:27;;;;;;;20.27;13.52;;;15.90;99.90;;;;;;5036060;28;20105;-59
2022/05/15 03:06:53;;;;;;;18.67;14.20;;;15.90;99.90;;;;;;5035973;28;20079;-59
2022/05/15 03:09:19;;;;;;;21.98;13.98;;;15.70;99.90;;;;;;5031783;28;20030;-58
2022/05/15 03:11:45;;;;;;;17.05;13.32;;;15.70;99.90;;;;;;5034423;28;20029;-59
2022/05/15 03:14:11;;;;;;;16.52;12.75;;;15.70;99.90;;;;;;5037058;28;20030;-59
2022/05/15 03:16:37;;;;;;;16.88;13.55;;;15.70;99.90;;;;;;5035640;28;20464;-59
2022/05/15 03:19:02;;;;;;;19.20;13.85;;;15.70;99.90;;;;;;5036027;28;20096;-60
2022/05/15 03:21:28;;;;;;;15.20;13.18;;;15.70;99.90;;;;;;5034357;28;20456;-59
2022/05/15 03:24:03;;;;;;;18.75;14.63;;;15.60;99.90;;;;;;5032309;28;20036;-60
2022/05/15 03:26:31;;;;;;;19.65;15.10;;;15.60;99.90;;;;;;5037303;28;20030;-59
2022/05/15 03:28:57;;;;;;;18.45;13.98;;;15.60;99.90;;;;;;5035184;28;20045;-60
2022/05/15 03:31:22;;;;;;;17.08;14.60;;;15.50;99.90;;;;;;5035429;28;20152;-59
2022/05/15 03:33:48;;;;;;;17.15;14.38;;;15.50;99.90;;;;;;5034182;28;20154;-58
2022/05/15 03:36:17;;;;;;;16.73;14.18;;;15.60;99.90;;;;;;5032140;28;20072;-59
2022/05/15 03:38:44;;;;;;;20.50;14.52;;;15.50;99.90;;;;;;5034179;28;20399;-60
2022/05/15 03:41:11;;;;;;;18.27;15.30;;;15.50;99.90;;;;;;5036700;28;20607;-58
2022/05/15 03:43:37;;;;;;;18.20;14.25;;;15.40;99.90;;;;;;5035159;28;20568;-60
2022/05/15 03:46:05;;;;;;;20.48;13.88;;;15.40;99.90;;;;;;5035474;28;20040;-59
2022/05/15 03:48:30;;;;;;;20.98;13.98;;;15.40;99.90;;;;;;5034305;28;20082;-59
2022/05/15 03:50:56;;;;;;;18.85;14.35;;;15.50;99.90;;;;;;5031493;28;20108;-59
2022/05/15 03:53:24;;;;;;;18.83;14.07;;;15.40;99.90;;;;;;5036715;28;20037;-59
2022/05/15 03:55:51;;;;;;;18.80;14.60;;;15.50;99.90;;;;;;5035025;28;20116;-59
2022/05/15 03:58:17;;;;;;;17.60;13.38;;;15.50;99.90;;;;;;5035096;28;20175;-59
2022/05/15 04:00:42;;;;;;;17.30;12.77;;;15.40;99.90;;;;;;5034975;28;20557;-59
2022/05/15 04:03:08;;;;;;;16.00;12.60;;;15.50;99.90;;;;;;5030076;28;20109;-59
2022/05/15 04:05:34;;;;;;;18.70;12.77;;;15.60;99.90;;;;;;5035775;28;20022;-59
2022/05/15 04:08:00;;;;;;;16.15;11.98;;;15.60;99.90;;;;;;5034979;28;20041;-59
2022/05/15 04:10:29;;;;;;;18.00;12.27;;;15.60;99.90;;;;;;5034381;28;20029;-59
2022/05/15 04:12:54;;;;;;;17.10;11.68;;;15.70;99.90;;;;;;5034671;28;20163;-59
2022/05/15 04:15:20;;;;;;;17.45;11.35;;;15.70;99.90;;;;;;5032532;28;20462;-59
2022/05/15 04:17:49;;;;;;;15.48;10.95;;;15.70;99.90;;;;;;5032737;28;20037;-59
2022/05/15 04:20:18;;;;;;;14.93;10.70;;;15.80;99.90;;;;;;5034842;28;20120;-59
2022/05/15 04:22:44;;;;;;;14.15;10.20;;;15.90;99.90;;;;;;5034578;28;20368;-59
2022/05/15 04:25:13;;;;;;;14.55;10.32;;;15.90;99.90;;;;;;5034517;28;20025;-59
2022/05/15 04:27:39;;;;;;;15.30;9.70;;;15.90;99.90;;;;;;5032981;28;20028;-59
2022/05/15 04:30:06;;;;;;;13.18;9.55;;;16.00;99.90;;;;;;5030438;28;20429;-59
2022/05/15 04:32:32;;;;;;;15.38;9.65;;;16.10;99.90;;;;;;5035054;28;20025;-59
2022/05/15 04:34:58;;;;;;;14.20;10.05;;;16.10;99.90;;;;;;5032925;28;20033;-59
2022/05/15 04:37:24;;;;;;;14.63;9.77;;;16.10;99.90;;;;;;5034168;28;20045;-60
2022/05/15 04:39:50;;;;;;;14.32;9.63;;;16.10;99.90;;;;;;5034351;28;20481;-59
2022/05/15 04:42:16;;;;;;;11.68;9.57;;;16.20;99.90;;;;;;5030518;28;20042;-59
2022/05/15 04:44:42;;;;;;;12.38;9.18;;;16.20;99.90;;;;;;5033610;28;20029;-59
2022/05/15 04:47:07;;;;;;;15.18;9.63;;;16.30;99.90;;;;;;5035450;28;20018;-58
2022/05/15 04:49:33;;;;;;;14.20;9.05;;;16.40;99.90;;;;;;5033977;28;20045;-60
2022/05/15 04:51:59;;;;;;;12.82;8.90;;;16.40;99.90;;;;;;5034258;28;20025;-59
2022/05/15 04:54:25;;;;;;;16.92;8.38;;;16.50;99.90;;;;;;5032644;28;20052;-59
2022/05/15 04:56:51;;;;;;;10.45;7.70;;;16.60;99.90;;;;;;5031510;28;20052;-59
2022/05/15 04:59:16;;;;;;;11.50;8.02;;;16.70;99.90;;;;;;5036195;28;20060;-60
2022/05/15 05:01:43;;;;;;;11.65;7.80;;;16.80;99.90;;;;;;5034079;28;20167;-59
2022/05/15 05:04:09;;;;;;;10.93;8.00;;;16.80;99.90;;;;;;5033927;28;20090;-60
2022/05/15 05:06:35;;;;;;;11.23;8.13;;;16.90;99.90;;;;;;5034131;28;20503;-58
2022/05/15 05:09:01;;;;;;;12.68;8.60;;;16.80;99.90;;;;;;5029683;28;20042;-59
2022/05/15 05:11:26;;;;;;;13.50;9.05;;;16.70;99.90;;;;;;5036160;28;20101;-59
2022/05/15 05:13:52;;;;;;;14.05;9.30;;;16.80;99.90;;;;;;5032825;28;20397;-59
2022/05/15 05:16:19;;;;;;;11.75;9.13;;;16.70;99.90;;;;;;5034430;28;20021;-60
2022/05/15 05:18:45;;;;;;;9.77;8.77;;;16.70;99.90;;;;;;5033757;28;20036;-60
2022/05/15 05:21:11;;;;;;;11.70;8.30;;;16.70;99.90;;;;;;5029215;28;20109;-59
2022/05/15 05:23:37;;;;;;;13.27;9.13;;;16.70;99.90;;;;;;5036770;28;20457;-60
2022/05/15 05:26:03;;;;;;;13.02;8.98;;;16.70;99.90;;;;;;5038364;28;20017;-60
2022/05/15 05:28:29;;;;;;;12.68;9.60;;;16.60;99.90;;;;;;5037699;28;20132;-59
2022/05/15 05:30:58;;;;;;;12.68;8.95;;;16.70;99.90;;;;;;5037972;28;20112;-59
2022/05/15 05:33:23;;;;;;;12.70;9.02;;;16.80;99.90;;;;;;5035321;28;20089;-60
2022/05/15 05:35:50;;;;;;;14.30;9.05;;;16.80;99.90;;;;;;5035006;28;20021;-60
2022/05/15 05:38:16;;;;;;;14.77;9.15;;;16.80;99.90;;;;;;5039293;28;20053;-59
2022/05/15 05:40:42;;;;;;;13.80;8.80;;;17.00;99.90;;;;;;5037772;28;20030;-59
2022/05/15 05:43:08;;;;;;;12.80;8.45;;;17.10;99.90;;;;;;5037576;28;20021;-59
2022/05/15 05:45:34;;;;;;;13.50;9.30;;;17.20;99.90;;;;;;5035748;28;20028;-58
2022/05/15 05:48:00;;;;;;;13.70;8.90;;;17.20;99.90;;;;;;5032923;28;20065;-60
2022/05/15 05:50:27;;;;;;;12.43;8.02;;;17.10;99.90;;;;;;5039374;28;20048;-57
2022/05/15 05:52:54;;;;;;;11.02;7.72;;;17.30;99.90;;;;;;5037379;28;20033;-59
2022/05/15 05:55:21;;;;;;;11.43;7.40;;;17.60;99.90;;;;;;5037275;28;20025;-59
2022/05/15 05:57:48;;;;;;;10.02;7.85;;;17.80;99.90;;;;;;5037205;28;20119;-59
2022/05/15 06:00:34;;;;;;;10.80;7.90;;;17.80;99.90;;;;;;5032820;28;20057;-60
2022/05/15 06:05:49;;;;;;;12.50;7.40;;;17.80;99.90;;;;;;5047502;28;20124;-60
2022/05/15 06:08:16;;;;;;;11.90;7.22;;;18.00;99.90;;;;;;5036840;28;20474;-59
2022/05/15 06:10:42;;;;;;;11.80;7.43;;;18.10;99.90;;;;;;5036932;28;20071;-59
2022/05/15 06:13:08;;;;;;;10.52;7.57;;;18.00;99.90;;;;;;5036938;28;20040;-59
2022/05/15 06:15:35;;;;;;;14.20;7.30;;;18.10;99.90;;;;;;5036896;28;20111;-60
2022/05/15 06:18:02;;;;;;;13.18;7.30;;;18.30;99.90;;;;;;5032177;28;20033;-58
2022/05/15 06:20:29;;;;;;;11.10;6.45;;;18.50;99.90;;;;;;5038633;28;20497;-60
2022/05/15 06:22:55;;;;;;;9.77;6.65;;;18.90;99.90;;;;;;5036757;28;20029;-59
2022/05/15 06:25:21;;;;;;;10.32;6.25;;;20.00;99.90;;;;;;5035506;28;20386;-58
2022/05/15 06:27:47;;;;;;;11.60;6.00;;;20.00;99.90;;;;;;5036549;28;20036;-59
2022/05/15 06:30:14;;;;;;;9.23;5.68;;;20.40;99.90;;;;;;5033570;28;20108;-59
2022/05/15 06:32:40;;;;;;;6.32;5.18;;;23.20;99.90;;;;;;5036058;28;20463;-59
2022/05/15 06:35:10;;;;;;;9.02;5.57;;;25.00;99.90;;;;;;5036951;28;20057;-59
2022/05/15 06:37:36;;;;;;;10.15;5.50;;;24.70;99.90;;;;;;5036171;28;20037;-58
2022/05/15 06:40:04;;;;;;;11.18;5.65;;;24.20;99.90;;;;;;5035072;28;20025;-59
2022/05/15 06:42:30;;;;;;;8.38;5.55;;;22.50;99.90;;;;;;5035580;28;20095;-60
2022/05/15 06:44:57;;;;;;;12.65;5.68;;;21.90;99.90;;;;;;5032694;28;20037;-59
2022/05/15 06:47:26;;;;;;;8.57;5.53;;;21.50;99.90;;;;;;5037855;28;20026;-59
2022/05/15 06:49:52;;;;;;;12.18;5.93;;;20.80;99.90;;;;;;5036087;28;20151;-59
2022/05/15 06:52:18;;;;;;;11.50;5.88;;;21.00;99.90;;;;;;5036079;28;20036;-60
2022/05/15 06:54:44;;;;;;;10.60;5.50;;;21.00;99.90;;;;;;5036426;28;20038;-59
2022/05/15 06:59:55;;;;;;;8.95;4.95;;;21.70;99.90;;;;;;5032385;28;20040;-58
2022/05/15 07:02:20;;;;;;;10.93;5.15;;;22.80;99.90;;;;;;5037995;28;20026;-59
2022/05/15 07:04:46;;;;;;;9.93;4.90;;;24.30;99.90;;;;;;5034453;28;20032;-58
2022/05/15 07:07:12;;;;;;;9.60;5.00;;;23.70;99.90;;;;;;5035631;28;20084;-59
2022/05/15 07:09:37;;;;;;;9.13;5.47;;;23.70;99.90;;;;;;5035649;28;20029;-60
2022/05/15 07:12:06;;;;;;;10.75;5.45;;;23.00;99.90;;;;;;5031537;28;20430;-60
2022/05/15 07:14:33;;;;;;;11.63;6.10;;;23.50;99.90;;;;;;5044288;28;20036;-60
2022/05/15 07:16:59;;;;;;;11.18;5.68;;;25.20;99.90;;;;;;5033443;28;20043;-60
2022/05/15 07:19:24;;;;;;;12.25;5.55;;;24.80;99.90;;;;;;5033525;28;20025;-60
2022/05/15 07:21:50;;;;;;;10.55;5.75;;;25.90;99.90;;;;;;5034976;28;20070;-60
2022/05/15 07:24:16;;;;;;;12.75;5.07;;;27.40;99.90;;;;;;5032360;28;20105;-60
2022/05/15 07:26:44;;;;;;;9.18;4.90;;;26.80;99.90;;;;;;5032040;28;20103;-60
2022/05/15 07:29:11;;;;;;;9.95;4.72;;;26.10;99.90;;;;;;5035448;28;20082;-59
2022/05/15 07:31:37;;;;;;;7.35;4.97;;;25.70;99.90;;;;;;5035562;28;20033;-60
2022/05/15 07:34:03;;;;;;;9.70;5.00;;;25.30;99.90;;;;;;5035368;28;20116;-60
2022/05/15 07:36:29;;;;;;;7.75;5.05;;;24.60;99.90;;;;;;5034417;28;20227;-60
2022/05/15 07:38:55;;;;;;;8.80;4.90;;;25.50;99.90;;;;;;5031157;28;20049;-60
2022/05/15 07:41:21;;;;;;;8.05;5.00;;;26.20;99.90;;;;;;5037046;28;20026;-59
2022/05/15 07:43:46;;;;;;;10.00;5.30;;;26.70;99.90;;;;;;5033409;28;20025;-60
2022/05/15 07:46:12;;;;;;;7.10;4.15;;;28.10;99.90;;;;;;5033823;28;20033;-60
2022/05/15 07:48:38;;;;;;;9.88;4.60;;;29.90;99.90;;;;;;5034434;28;20037;-59
2022/05/15 07:51:04;;;;;;;11.18;5.10;;;30.80;99.90;;;;;;5030068;28;20026;-60
2022/05/15 07:53:30;;;;;;;8.70;4.82;;;32.30;99.90;;;;;;5047803;28;20029;-60
2022/05/15 07:55:59;;;;;;;10.73;4.60;;;32.30;99.40;;;;;;5045289;28;20459;-60
2022/05/15 07:58:25;;;;;;;7.15;4.20;;;32.20;99.30;;;;;;5037595;28;20018;-60
2022/05/15 08:00:54;;;;;;;6.95;4.43;;;32.70;99.20;;;;;;5034603;28;20031;-60
2022/05/15 08:03:20;;;;;;;9.02;4.45;;;32.10;98.00;;;;;;5031501;28;20071;-61
2022/05/15 08:08:30;;;;;;;9.23;4.55;;;32.60;98.10;;;;;;5043388;28;20068;-61
2022/05/15 08:10:56;;;;;;;7.28;4.18;;;30.80;99.00;;;;;;5034275;28;20057;-60
2022/05/15 08:13:29;;;;;;;9.68;4.45;;;31.00;98.50;;;;;;5034122;28;20075;-60
2022/05/15 08:15:55;;;;;;;9.70;4.18;;;31.40;99.70;;;;;;5034779;28;20037;-62
2022/05/15 08:24:00;;;;;;;12.95;4.40;;;31.20;98.60;;;;;;5044658;28;20512;-61
2022/05/15 08:26:26;;;;;;;8.32;4.13;;;30.80;99.10;;;;;;5036465;28;20028;-61
2022/05/15 08:28:53;;;;;;;6.88;4.03;;;31.60;99.30;;;;;;5033783;28;20418;-61
2022/05/15 08:31:20;;;;;;;7.45;3.85;;;32.20;98.80;;;;;;5034194;28;20030;-61
2022/05/15 08:33:46;;;;;;;8.27;4.25;;;30.30;99.90;;;;;;5034427;28;20029;-60
2022/05/15 08:36:12;;;;;;;8.90;4.25;;;29.70;99.90;;;;;;5029700;28;20029;-61
2022/05/15 08:38:39;;;;;;;9.50;4.10;;;30.90;99.40;;;;;;5034508;28;20411;-61
2022/05/15 08:41:29;;;;;;;8.32;3.97;;;31.40;98.50;;;;;;5034671;28;20083;-61
2022/05/15 08:44:01;;;;;;;5.60;3.90;;;31.00;98.60;;;;;;5034043;28;20052;-61
2022/05/15 08:46:48;;;;;;;11.10;4.20;;;30.00;99.90;;;;;;5034351;28;20036;-61
2022/05/15 08:49:45;;;;;;;10.48;4.30;;;31.00;99.50;;;;;;5032449;28;20061;-60
2022/05/15 08:52:48;;;;;;;6.93;3.95;;;29.20;99.90;;;;;;5033236;28;20057;-60
2022/05/15 08:55:22;;;;;;;10.68;4.13;;;29.00;99.90;;;;;;5030912;28;20041;-61
2022/05/15 08:58:02;;;;;;;8.32;4.07;;;29.50;99.90;;;;;;5036831;28;20021;-60
2022/05/15 09:00:38;;;;;;;9.43;4.35;;;30.00;99.50;;;;;;5034710;28;20056;-60
2022/05/15 09:03:31;;;;;;;9.30;4.22;;;29.60;99.90;;;;;;5018044;28;20036;-60
2022/05/15 09:06:18;;;;;;;8.37;4.40;;;29.30;99.90;;;;;;5048476;28;20394;-59
2022/05/15 09:09:08;;;;;;;9.85;4.05;;;28.50;99.90;;;;;;5047542;28;20405;-60
2022/05/15 09:11:35;;;;;;;7.90;3.88;;;29.00;99.90;;;;;;5047097;28;20532;-60
2022/05/15 09:14:19;;;;;;;12.68;4.00;;;28.90;99.90;;;;;;5038011;28;20106;-60
2022/05/15 09:16:58;;;;;;;7.43;4.38;;;27.80;99.90;;;;;;5036169;28;20070;-60
2022/05/15 09:19:25;;;;;;;11.55;4.32;;;27.20;99.90;;;;;;5037589;28;20045;-60
2022/05/15 09:21:55;;;;;;;9.15;4.30;;;27.10;99.90;;;;;;5037977;28;20017;-59
2022/05/15 09:24:51;;;;;;;11.00;4.35;;;27.10;99.90;;;;;;5035624;28;20112;-60
2022/05/15 09:27:27;;;;;;;8.95;4.20;;;27.00;99.90;;;;;;5020691;28;20025;-60
2022/05/15 09:29:59;;;;;;;10.82;4.60;;;26.90;99.90;;;;;;5034353;28;20038;-60
2022/05/15 09:32:38;;;;;;;5.20;4.03;;;26.10;99.90;;;;;;5039664;28;20037;-60
2022/05/15 09:35:26;;;;;;;8.48;4.53;;;25.90;99.90;;;;;;5037060;28;20025;-61
2022/05/15 09:43:39;;;;;;;7.57;4.50;;;25.90;99.90;;;;;;5038149;28;20395;-59
2022/05/15 09:46:14;;;;;;;11.55;5.00;;;25.60;99.90;;;;;;5036351;28;20525;-60
2022/05/15 09:48:51;;;;;;;8.88;4.75;;;25.60;99.90;;;;;;5032361;28;20060;-60
2022/05/15 09:51:32;;;;;;;8.18;4.53;;;25.60;99.90;;;;;;5031768;28;20057;-60
2022/05/15 09:53:58;;;;;;;9.65;5.20;;;25.50;99.90;;;;;;5031197;28;20506;-60
2022/05/15 09:56:30;;;;;;;7.82;4.60;;;25.80;99.90;;;;;;5040327;28;20037;-59
2022/05/15 09:59:11;;;;;;;9.23;4.68;;;25.80;99.90;;;;;;5045874;28;20513;-60
2022/05/15 10:01:49;;;;;;;6.35;4.75;;;26.00;99.90;;;;;;5039761;28;20037;-60
2022/05/15 10:04:25;;;;;;;8.82;4.35;;;26.00;99.90;;;;;;5041542;28;20032;-60
2022/05/15 10:06:55;;;;;;;6.40;4.53;;;25.80;99.90;;;;;;5045443;28;20099;-60
2022/05/15 10:09:34;;;;;;;9.63;5.65;;;25.70;99.90;;;;;;5033581;28;20041;-60
2022/05/15 10:12:15;;;;;;;9.82;5.00;;;25.20;99.90;;;;;;5032646;28;20029;-60
2022/05/15 10:14:52;;;;;;;8.50;5.57;;;24.70;99.90;;;;;;5046380;28;20477;-60
2022/05/15 10:17:20;;;;;;;13.82;7.10;;;24.90;99.90;;;;;;5035925;28;20390;-60
2022/05/15 10:20:01;;;;;;;8.88;4.93;;;24.60;99.90;;;;;;5034948;28;20032;-59
2022/05/15 10:22:30;;;;;;;7.47;5.10;;;24.70;99.90;;;;;;5036616;28;20037;-60
2022/05/15 10:25:16;;;;;;;10.18;5.80;;;24.40;99.90;;;;;;5035912;28;20481;-61
2022/05/15 10:27:49;;;;;;;6.85;5.70;;;24.40;99.90;;;;;;5036180;28;20031;-60
2022/05/15 10:30:20;;;;;;;7.03;5.22;;;24.40;99.90;;;;;;5033636;28;20040;-60
2022/05/15 10:32:56;;;;;;;9.00;5.90;;;24.30;99.90;;;;;;5035353;28;20033;-60
2022/05/15 10:35:39;;;;;;;8.77;4.90;;;24.40;99.90;;;;;;5036453;28;20028;-60
2022/05/15 10:38:14;;;;;;;;;;;24.70;99.90;;;;;;5035643;28;20195;-61
2022/05/15 10:41:09;;;;;;;9.82;4.70;;;25.20;99.90;;;;;;5036079;28;20009;-59
2022/05/15 10:43:42;;;;;;;8.55;4.70;;;25.90;99.90;;;;;;5035975;28;20053;-60
2022/05/15 10:46:19;;;;;;;;;;;25.70;99.90;;;;;;5036719;28;20018;-60
2022/05/15 10:49:09;;;;;;;6.35;4.20;;;25.50;99.90;;;;;;5034744;28;19924;-60
2022/05/15 10:52:04;;;;;;;12.55;6.25;;;25.40;99.90;;;;;;5035547;28;20354;-60
2022/05/15 10:58:07;;;;;;;9.45;5.45;;;23.60;99.90;;;;;;4993723;28;20132;-60
2022/05/15 11:00:42;;;;;;;13.57;5.65;;;23.80;99.90;;;;;;5005796;28;20030;-61
2022/05/15 11:03:45;;;;;;;12.23;4.82;;;24.40;99.90;;;;;;4994049;28;20031;-60
2022/05/15 11:06:39;;;;;;;10.02;4.88;;;24.60;99.90;;;;;;4951476;29;20496;-60
2022/05/15 11:09:32;;;;;;;11.38;6.45;;;25.00;99.90;;;;;;4937121;29;20071;-61
2022/05/15 11:12:09;;;;;;;14.07;6.78;;;24.40;99.90;;;;;;4951817;29;20031;-61
2022/05/15 11:14:49;;;;;;;13.30;7.28;;;24.00;99.90;;;;;;4949170;29;20465;-61
2022/05/15 11:17:49;;;;;;;11.68;6.68;;;24.10;99.90;;;;;;4952397;29;20123;-61
2022/05/15 11:20:24;;;;;;;8.57;5.85;;;24.10;99.90;;;;;;4949714;28;20036;-60
2022/05/15 11:23:03;;;;;;;11.20;5.50;;;23.90;99.90;;;;;;4951471;29;20031;-61
2022/05/15 11:25:35;;;;;;;10.27;5.18;;;23.90;99.90;;;;;;4951775;29;20118;-60
2022/05/15 11:28:14;;;;;;;8.60;4.45;;;24.00;99.90;;;;;;4951569;29;20042;-61
2022/05/15 11:30:43;;;;;;;7.50;4.78;;;23.80;99.90;;;;;;4951161;29;20049;-60
2022/05/15 11:33:43;;;;;;;9.85;5.22;;;24.00;99.90;;;;;;4952048;28;20555;-60
2022/05/15 11:36:13;;;;;;;10.52;4.78;;;24.30;99.90;;;;;;4972862;28;20038;-60
2022/05/15 11:39:05;;;;;;;10.15;4.60;;;24.50;99.90;;;;;;4974461;28;20065;-60
2022/05/15 11:41:37;;;;;;;8.10;4.57;;;24.90;99.90;;;;;;4976263;28;20069;-60
2022/05/15 11:44:18;;;;;;;7.97;4.57;;;25.30;99.90;;;;;;5033129;28;20038;-60
2022/05/15 11:46:50;;;;;;;6.55;3.70;;;25.70;99.90;;;;;;5034982;28;20053;-61
2022/05/15 11:49:26;;;;;;;10.98;5.15;;;26.40;99.90;;;;;;5034732;28;20036;-61
2022/05/15 11:52:14;;;;;;;8.93;4.40;;;26.50;99.90;;;;;;5032952;28;20044;-61
2022/05/15 11:54:48;;;;;;;9.40;4.40;;;26.20;99.90;;;;;;5034342;28;20509;-60
2022/05/15 11:57:34;;;;;;;9.45;4.60;;;26.90;99.90;;;;;;5031097;28;20505;-61
2022/05/15 12:00:03;;;;;;;9.07;4.47;;;27.00;99.90;;;;;;5030806;28;20536;-61
2022/05/15 12:02:29;;;;;;;7.20;3.95;;;26.90;99.90;;;;;;5036405;28;20532;-60
2022/05/15 12:04:55;;;;;;;11.50;4.82;;;27.00;99.90;;;;;;5034455;28;20041;-61
2022/05/15 12:07:53;;;;;;;14.30;5.07;;;26.70;99.90;;;;;;5034373;28;20033;-61
2022/05/15 12:10:26;;;;;;;8.40;4.25;;;27.10;99.90;;;;;;5034673;28;20034;-60
2022/05/15 12:13:01;;;;;;;10.82;3.90;;;27.10;99.90;;;;;;5034869;28;20503;-61
2022/05/15 12:15:37;;;;;;;9.20;3.83;;;27.00;99.90;;;;;;5031596;28;20040;-60
2022/05/15 12:18:18;;;;;;;10.95;4.28;;;27.40;99.90;;;;;;5030217;28;20044;-61
2022/05/15 12:20:47;;;;;;;8.25;4.20;;;27.30;99.90;;;;;;5044082;28;20075;-62
2022/05/15 12:23:18;;;;;;;12.10;3.80;;;27.20;99.90;;;;;;5035853;28;20441;-61
2022/05/15 12:25:56;;;;;;;10.90;4.50;;;27.30;99.90;;;;;;5034449;28;20026;-61
2022/05/15 12:31:36;;;;;;;7.20;4.03;;;27.10;99.90;;;;;;5032412;28;20213;-60
2022/05/15 12:34:13;;;;;;;9.25;4.13;;;27.70;99.90;;;;;;5033725;28;20026;-61
2022/05/15 12:36:43;;;;;;;11.57;3.85;;;28.30;99.90;;;;;;5034429;28;20013;-60
2022/05/15 12:39:15;;;;;;;10.95;3.58;;;28.70;99.90;;;;;;5014936;28;20050;-62
2022/05/15 12:41:45;;;;;;;9.00;3.60;;;28.90;99.90;;;;;;5034609;28;20037;-60
2022/05/15 12:44:12;;;;;;;8.52;3.22;;;28.90;99.90;;;;;;5035264;28;20053;-61
2022/05/15 12:46:58;;;;;;;9.38;3.60;;;29.30;99.90;;;;;;5033772;28;20490;-61
2022/05/15 12:49:33;;;;;;;12.13;3.78;;;29.60;99.90;;;;;;5033773;28;20048;-61
2022/05/15 12:52:18;;;;;;;8.63;3.47;;;29.70;99.90;;;;;;5034093;28;20025;-61
2022/05/15 12:54:56;;;;;;;11.75;3.72;;;29.20;99.90;;;;;;5032064;28;20035;-61
2022/05/15 12:57:22;;;;;;;9.43;4.00;;;29.50;99.90;;;;;;5031440;28;20032;-61
2022/05/15 12:59:49;;;;;;;9.43;3.78;;;29.30;99.90;;;;;;5032984;28;20025;-61
2022/05/15 13:02:35;;;;;;;11.30;4.20;;;29.40;99.90;;;;;;5035018;28;20041;-62
2022/05/15 13:05:17;;;;;;;9.25;3.55;;;29.90;99.90;;;;;;5034361;28;20120;-61
2022/05/15 13:07:43;;;;;;;11.90;4.03;;;29.60;99.90;;;;;;5033891;28;20029;-61
2022/05/15 13:10:21;;;;;;;7.32;3.88;;;28.90;99.90;;;;;;5032638;28;20033;-61
2022/05/15 13:13:25;;;;;;;12.35;3.88;;;29.10;99.90;;;;;;5033719;28;20485;-62
2022/05/15 13:15:53;;;;;;;10.30;3.80;;;29.10;99.90;;;;;;5033854;28;20029;-60
2022/05/15 13:18:21;;;;;;;8.60;3.78;;;29.60;99.90;;;;;;5029104;28;20493;-61
2022/05/15 13:21:01;;;;;;;10.40;3.80;;;30.10;99.90;;;;;;5031680;28;20096;-60
2022/05/15 13:23:35;;;;;;;10.70;3.95;;;30.10;99.60;;;;;;5032999;28;20412;-61
2022/05/15 13:26:03;;;;;;;11.38;3.35;;;30.30;99.90;;;;;;5031804;28;20113;-61